Terminal Aerodrome Forecast
Issued by NWS Bismarck, ND

Home | Current Version | Previous Version | Graphics & Text | Print | Product List | Glossary On
Versions: 1 2 3 4 5 6 7 8 9 10 11 12 13 14 15 16
890
FTUS43 KBIS 231734
TAFISN
TAF
KISN 231734Z 2318/2418 36011KT P6SM VCSH BKN040 OVC090
     FM232300 36011KT P6SM SCT045 BKN070
     FM240500 VRB04KT P6SM FEW200
     FM241500 27005KT P6SM SKC=

USA.gov is the U.S. government's official web portal to all federal, state and local government web resources and services.